sensor_id;sensor_type;location;lat;lon;timestamp;temperature;humidity
43143;DHT22;28750;59.842;17.584;2022-11-20T00:01:23;0.60;99.90
43143;DHT22;28750;59.842;17.584;2022-11-20T00:03:51;0.60;99.90
43143;DHT22;28750;59.842;17.584;2022-11-20T00:06:19;0.60;99.90
43143;DHT22;28750;59.842;17.584;2022-11-20T00:08:47;0.60;99.90
43143;DHT22;28750;59.842;17.584;2022-11-20T00:11:17;0.60;95.50
43143;DHT22;28750;59.842;17.584;2022-11-20T00:13:45;0.60;8.90
43143;DHT22;28750;59.842;17.584;2022-11-20T00:16:15;0.60;1.00
43143;DHT22;28750;59.842;17.584;2022-11-20T00:18:42;0.60;99.90
43143;DHT22;28750;59.842;17.584;2022-11-20T00:21:24;0.60;99.90
43143;DHT22;28750;59.842;17.584;2022-11-20T00:23:54;0.60;99.90
43143;DHT22;28750;59.842;17.584;2022-11-20T00:26:22;0.60;47.90
43143;DHT22;28750;59.842;17.584;2022-11-20T00:28:54;0.60;99.90
43143;DHT22;28750;59.842;17.584;2022-11-20T00:31:22;0.50;99.90
43143;DHT22;28750;59.842;17.584;2022-11-20T00:33:49;0.50;94.90
43143;DHT22;28750;59.842;17.584;2022-11-20T00:36:21;0.60;99.90
43143;DHT22;28750;59.842;17.584;2022-11-20T00:38:57;0.60;93.80
43143;DHT22;28750;59.842;17.584;2022-11-20T00:41:25;0.50;98.00
43143;DHT22;28750;59.842;17.584;2022-11-20T00:43:53;0.60;99.90
43143;DHT22;28750;59.842;17.584;2022-11-20T00:46:25;0.60;71.90
43143;DHT22;28750;59.842;17.584;2022-11-20T00:48:53;0.60;23.40
43143;DHT22;28750;59.842;17.584;2022-11-20T00:51:22;0.60;99.90
43143;DHT22;28750;59.842;17.584;2022-11-20T00:53:49;0.60;99.90
43143;DHT22;28750;59.842;17.584;2022-11-20T00:56:18;0.60;99.90
43143;DHT22;28750;59.842;17.584;2022-11-20T00:58:47;0.60;99.90
43143;DHT22;28750;59.842;17.584;2022-11-20T01:01:21;0.60;99.90
43143;DHT22;28750;59.842;17.584;2022-11-20T01:03:50;0.60;99.90
43143;DHT22;28750;59.842;17.584;2022-11-20T01:06:38;0.50;99.90
43143;DHT22;28750;59.842;17.584;2022-11-20T01:09:13;0.50;99.90
43143;DHT22;28750;59.842;17.584;2022-11-20T01:11:42;0.60;99.90
43143;DHT22;28750;59.842;17.584;2022-11-20T01:14:14;0.60;99.90
43143;DHT22;28750;59.842;17.584;2022-11-20T01:16:44;0.50;99.90
43143;DHT22;28750;59.842;17.584;2022-11-20T01:19:15;0.50;99.90
43143;DHT22;28750;59.842;17.584;2022-11-20T01:21:43;0.50;99.90
43143;DHT22;28750;59.842;17.584;2022-11-20T01:24:12;0.60;99.90
43143;DHT22;28750;59.842;17.584;2022-11-20T01:26:41;0.50;99.90
43143;DHT22;28750;59.842;17.584;2022-11-20T01:29:15;0.50;99.90
43143;DHT22;28750;59.842;17.584;2022-11-20T01:31:43;0.50;99.90
43143;DHT22;28750;59.842;17.584;2022-11-20T01:34:12;0.50;99.90
43143;DHT22;28750;59.842;17.584;2022-11-20T01:36:41;0.50;99.90
43143;DHT22;28750;59.842;17.584;2022-11-20T01:39:15;0.50;99.90
43143;DHT22;28750;59.842;17.584;2022-11-20T01:41:42;0.50;99.90
43143;DHT22;28750;59.842;17.584;2022-11-20T01:44:58;0.50;99.90
43143;DHT22;28750;59.842;17.584;2022-11-20T01:47:46;0.50;1.00
43143;DHT22;28750;59.842;17.584;2022-11-20T01:50:18;0.50;1.00
43143;DHT22;28750;59.842;17.584;2022-11-20T01:53:03;0.50;1.00
43143;DHT22;28750;59.842;17.584;2022-11-20T01:55:36;0.50;44.40
43143;DHT22;28750;59.842;17.584;2022-11-20T01:58:03;0.50;99.10
43143;DHT22;28750;59.842;17.584;2022-11-20T02:00:31;0.50;99.90
43143;DHT22;28750;59.842;17.584;2022-11-20T02:03:02;0.40;99.90
43143;DHT22;28750;59.842;17.584;2022-11-20T02:05:51;0.50;99.90
43143;DHT22;28750;59.842;17.584;2022-11-20T02:08:19;0.50;99.90
43143;DHT22;28750;59.842;17.584;2022-11-20T02:10:47;0.50;99.90
43143;DHT22;28750;59.842;17.584;2022-11-20T02:13:14;0.40;99.90
43143;DHT22;28750;59.842;17.584;2022-11-20T02:15:58;0.40;99.90
43143;DHT22;28750;59.842;17.584;2022-11-20T02:18:26;0.50;99.90
43143;DHT22;28750;59.842;17.584;2022-11-20T02:21:19;0.50;99.90
43143;DHT22;28750;59.842;17.584;2022-11-20T02:24:01;0.40;99.90
43143;DHT22;28750;59.842;17.584;2022-11-20T02:26:31;0.40;99.90
43143;DHT22;28750;59.842;17.584;2022-11-20T02:29:01;0.50;99.90
43143;DHT22;28750;59.842;17.584;2022-11-20T02:31:28;0.40;99.90
43143;DHT22;28750;59.842;17.584;2022-11-20T02:33:56;0.40;99.90
43143;DHT22;28750;59.842;17.584;2022-11-20T02:36:26;0.30;99.90
43143;DHT22;28750;59.842;17.584;2022-11-20T02:38:54;0.30;99.90
43143;DHT22;28750;59.842;17.584;2022-11-20T02:41:21;0.30;99.90
43143;DHT22;28750;59.842;17.584;2022-11-20T02:43:47;0.30;99.90
43143;DHT22;28750;59.842;17.584;2022-11-20T02:46:14;0.30;99.90
43143;DHT22;28750;59.842;17.584;2022-11-20T02:48:41;0.30;99.90
43143;DHT22;28750;59.842;17.584;2022-11-20T02:51:08;0.30;99.90
43143;DHT22;28750;59.842;17.584;2022-11-20T02:53:35;0.20;99.90
43143;DHT22;28750;59.842;17.584;2022-11-20T02:56:02;0.20;99.90
43143;DHT22;28750;59.842;17.584;2022-11-20T02:58:29;0.20;99.90
43143;DHT22;28750;59.842;17.584;2022-11-20T03:00:56;0.20;99.90
43143;DHT22;28750;59.842;17.584;2022-11-20T03:03:23;0.20;99.90
43143;DHT22;28750;59.842;17.584;2022-11-20T03:05:50;0.20;99.90
43143;DHT22;28750;59.842;17.584;2022-11-20T03:08:17;0.20;99.90
43143;DHT22;28750;59.842;17.584;2022-11-20T03:10:44;0.20;99.90
43143;DHT22;28750;59.842;17.584;2022-11-20T03:13:11;0.20;99.90
43143;DHT22;28750;59.842;17.584;2022-11-20T03:15:38;0.20;99.90
43143;DHT22;28750;59.842;17.584;2022-11-20T03:18:06;0.20;99.90
43143;DHT22;28750;59.842;17.584;2022-11-20T03:20:33;0.30;99.90
43143;DHT22;28750;59.842;17.584;2022-11-20T03:23:01;0.20;99.90
43143;DHT22;28750;59.842;17.584;2022-11-20T03:25:28;0.20;99.90
43143;DHT22;28750;59.842;17.584;2022-11-20T03:27:55;0.20;99.90
43143;DHT22;28750;59.842;17.584;2022-11-20T03:30:22;0.30;99.90
43143;DHT22;28750;59.842;17.584;2022-11-20T03:32:52;0.30;99.90
43143;DHT22;28750;59.842;17.584;2022-11-20T03:35:19;0.30;99.90
43143;DHT22;28750;59.842;17.584;2022-11-20T03:37:46;0.30;99.90
43143;DHT22;28750;59.842;17.584;2022-11-20T03:40:13;0.30;99.90
43143;DHT22;28750;59.842;17.584;2022-11-20T03:42:40;0.30;99.90
43143;DHT22;28750;59.842;17.584;2022-11-20T03:45:17;0.30;99.90
43143;DHT22;28750;59.842;17.584;2022-11-20T03:47:45;0.30;99.90
43143;DHT22;28750;59.842;17.584;2022-11-20T03:50:13;0.30;99.90
43143;DHT22;28750;59.842;17.584;2022-11-20T03:52:40;0.30;99.90
43143;DHT22;28750;59.842;17.584;2022-11-20T03:55:08;0.40;99.90
43143;DHT22;28750;59.842;17.584;2022-11-20T03:57:36;0.30;99.90
43143;DHT22;28750;59.842;17.584;2022-11-20T04:00:04;0.30;99.90
43143;DHT22;28750;59.842;17.584;2022-11-20T04:02:31;0.30;99.90
43143;DHT22;28750;59.842;17.584;2022-11-20T04:04:58;0.30;99.90
43143;DHT22;28750;59.842;17.584;2022-11-20T04:07:25;0.30;99.90
43143;DHT22;28750;59.842;17.584;2022-11-20T04:09:52;0.30;99.90
43143;DHT22;28750;59.842;17.584;2022-11-20T04:12:18;0.30;99.90
43143;DHT22;28750;59.842;17.584;2022-11-20T04:14:45;0.30;99.90
43143;DHT22;28750;59.842;17.584;2022-11-20T04:17:12;0.30;99.90
43143;DHT22;28750;59.842;17.584;2022-11-20T04:19:39;0.30;99.90
43143;DHT22;28750;59.842;17.584;2022-11-20T04:22:06;0.30;99.90
43143;DHT22;28750;59.842;17.584;2022-11-20T04:24:33;0.30;99.90
43143;DHT22;28750;59.842;17.584;2022-11-20T04:27:00;0.30;99.90
43143;DHT22;28750;59.842;17.584;2022-11-20T04:29:27;0.30;99.90
43143;DHT22;28750;59.842;17.584;2022-11-20T04:31:54;0.30;99.90
43143;DHT22;28750;59.842;17.584;2022-11-20T04:34:21;0.30;99.90
43143;DHT22;28750;59.842;17.584;2022-11-20T04:36:48;0.30;99.90
43143;DHT22;28750;59.842;17.584;2022-11-20T04:39:15;0.30;99.90
43143;DHT22;28750;59.842;17.584;2022-11-20T04:41:42;0.30;99.90
43143;DHT22;28750;59.842;17.584;2022-11-20T04:44:10;0.30;99.90
43143;DHT22;28750;59.842;17.584;2022-11-20T04:46:39;0.30;99.90
43143;DHT22;28750;59.842;17.584;2022-11-20T04:49:07;0.20;99.90
43143;DHT22;28750;59.842;17.584;2022-11-20T04:51:35;0.20;99.90
43143;DHT22;28750;59.842;17.584;2022-11-20T04:54:02;0.20;99.90
43143;DHT22;28750;59.842;17.584;2022-11-20T04:56:29;0.20;99.90
43143;DHT22;28750;59.842;17.584;2022-11-20T04:59:00;0.20;99.90
43143;DHT22;28750;59.842;17.584;2022-11-20T05:01:28;0.20;99.90
43143;DHT22;28750;59.842;17.584;2022-11-20T05:03:55;0.20;99.90
43143;DHT22;28750;59.842;17.584;2022-11-20T05:06:22;0.20;99.90
43143;DHT22;28750;59.842;17.584;2022-11-20T05:08:49;0.20;99.90
43143;DHT22;28750;59.842;17.584;2022-11-20T05:11:19;0.20;99.90
43143;DHT22;28750;59.842;17.584;2022-11-20T05:13:46;0.20;99.90
43143;DHT22;28750;59.842;17.584;2022-11-20T05:16:19;0.20;99.90
43143;DHT22;28750;59.842;17.584;2022-11-20T05:18:47;0.20;99.90
43143;DHT22;28750;59.842;17.584;2022-11-20T05:21:14;0.20;99.90
43143;DHT22;28750;59.842;17.584;2022-11-20T05:23:43;0.20;99.90
43143;DHT22;28750;59.842;17.584;2022-11-20T05:26:19;0.30;99.90
43143;DHT22;28750;59.842;17.584;2022-11-20T05:28:47;0.30;99.90
43143;DHT22;28750;59.842;17.584;2022-11-20T05:31:19;0.30;99.90
43143;DHT22;28750;59.842;17.584;2022-11-20T05:33:47;0.30;99.90
43143;DHT22;28750;59.842;17.584;2022-11-20T05:36:15;0.30;99.90
43143;DHT22;28750;59.842;17.584;2022-11-20T05:38:42;0.30;99.90
43143;DHT22;28750;59.842;17.584;2022-11-20T05:41:13;0.30;99.90
43143;DHT22;28750;59.842;17.584;2022-11-20T05:43:41;0.30;99.90
43143;DHT22;28750;59.842;17.584;2022-11-20T05:46:10;0.40;99.90
43143;DHT22;28750;59.842;17.584;2022-11-20T05:48:39;0.30;99.90
43143;DHT22;28750;59.842;17.584;2022-11-20T05:51:08;0.30;99.90
43143;DHT22;28750;59.842;17.584;2022-11-20T05:53:36;0.40;99.90
43143;DHT22;28750;59.842;17.584;2022-11-20T05:56:12;0.30;99.90
43143;DHT22;28750;59.842;17.584;2022-11-20T05:58:40;0.40;99.90
43143;DHT22;28750;59.842;17.584;2022-11-20T06:01:16;0.40;99.90
43143;DHT22;28750;59.842;17.584;2022-11-20T06:03:44;0.30;99.90
43143;DHT22;28750;59.842;17.584;2022-11-20T06:06:14;0.30;99.90
43143;DHT22;28750;59.842;17.584;2022-11-20T06:08:41;0.30;99.90
43143;DHT22;28750;59.842;17.584;2022-11-20T06:11:10;0.40;99.90
43143;DHT22;28750;59.842;17.584;2022-11-20T06:13:38;0.40;99.90
43143;DHT22;28750;59.842;17.584;2022-11-20T06:16:05;0.30;99.90
43143;DHT22;28750;59.842;17.584;2022-11-20T06:18:32;0.40;99.90
43143;DHT22;28750;59.842;17.584;2022-11-20T06:21:19;0.30;99.90
43143;DHT22;28750;59.842;17.584;2022-11-20T06:23:48;0.20;99.90
43143;DHT22;28750;59.842;17.584;2022-11-20T06:26:25;0.20;99.90
43143;DHT22;28750;59.842;17.584;2022-11-20T06:28:53;0.20;99.90
43143;DHT22;28750;59.842;17.584;2022-11-20T06:31:23;0.20;99.90
43143;DHT22;28750;59.842;17.584;2022-11-20T06:33:51;0.20;99.90
43143;DHT22;28750;59.842;17.584;2022-11-20T06:36:20;0.30;99.90
43143;DHT22;28750;59.842;17.584;2022-11-20T06:38:47;0.30;99.90
43143;DHT22;28750;59.842;17.584;2022-11-20T06:41:19;0.30;99.90
43143;DHT22;28750;59.842;17.584;2022-11-20T06:43:47;0.20;99.90
43143;DHT22;28750;59.842;17.584;2022-11-20T06:46:16;0.20;99.90
43143;DHT22;28750;59.842;17.584;2022-11-20T06:48:43;0.20;99.90
43143;DHT22;28750;59.842;17.584;2022-11-20T06:51:10;0.20;99.90
43143;DHT22;28750;59.842;17.584;2022-11-20T06:53:38;0.20;99.90
43143;DHT22;28750;59.842;17.584;2022-11-20T06:56:05;0.20;99.90
43143;DHT22;28750;59.842;17.584;2022-11-20T06:58:34;0.10;99.90
43143;DHT22;28750;59.842;17.584;2022-11-20T07:01:04;0.10;99.90
43143;DHT22;28750;59.842;17.584;2022-11-20T07:03:32;0.20;99.90
43143;DHT22;28750;59.842;17.584;2022-11-20T07:06:00;0.20;99.90
43143;DHT22;28750;59.842;17.584;2022-11-20T07:08:28;0.20;99.90
43143;DHT22;28750;59.842;17.584;2022-11-20T07:11:03;0.30;99.90
43143;DHT22;28750;59.842;17.584;2022-11-20T07:13:31;0.30;99.90
43143;DHT22;28750;59.842;17.584;2022-11-20T07:16:03;0.30;99.90
43143;DHT22;28750;59.842;17.584;2022-11-20T07:18:30;0.40;99.90
43143;DHT22;28750;59.842;17.584;2022-11-20T07:21:02;0.30;99.90
43143;DHT22;28750;59.842;17.584;2022-11-20T07:23:30;0.40;99.90
43143;DHT22;28750;59.842;17.584;2022-11-20T07:25:57;0.40;99.90
43143;DHT22;28750;59.842;17.584;2022-11-20T07:28:24;0.40;99.90
43143;DHT22;28750;59.842;17.584;2022-11-20T07:30:52;0.40;99.90
43143;DHT22;28750;59.842;17.584;2022-11-20T07:33:20;0.50;99.90
43143;DHT22;28750;59.842;17.584;2022-11-20T07:35:47;0.40;99.90
43143;DHT22;28750;59.842;17.584;2022-11-20T07:38:14;0.50;99.90
43143;DHT22;28750;59.842;17.584;2022-11-20T07:40:41;0.50;99.90
43143;DHT22;28750;59.842;17.584;2022-11-20T07:43:08;0.50;99.90
43143;DHT22;28750;59.842;17.584;2022-11-20T07:45:35;0.50;99.90
43143;DHT22;28750;59.842;17.584;2022-11-20T07:48:02;0.50;99.90
43143;DHT22;28750;59.842;17.584;2022-11-20T07:50:29;0.50;99.90
43143;DHT22;28750;59.842;17.584;2022-11-20T07:53:05;0.50;99.90
43143;DHT22;28750;59.842;17.584;2022-11-20T07:55:32;0.50;99.90
43143;DHT22;28750;59.842;17.584;2022-11-20T07:57:59;0.60;99.90
43143;DHT22;28750;59.842;17.584;2022-11-20T08:00:26;0.60;99.90
43143;DHT22;28750;59.842;17.584;2022-11-20T08:02:53;0.50;99.90
43143;DHT22;28750;59.842;17.584;2022-11-20T08:05:20;0.50;99.90
43143;DHT22;28750;59.842;17.584;2022-11-20T08:07:47;0.50;99.90
43143;DHT22;28750;59.842;17.584;2022-11-20T08:10:15;0.50;99.90
43143;DHT22;28750;59.842;17.584;2022-11-20T08:12:49;0.60;99.90
43143;DHT22;28750;59.842;17.584;2022-11-20T08:15:34;0.50;99.90
43143;DHT22;28750;59.842;17.584;2022-11-20T08:18:11;0.50;99.90
43143;DHT22;28750;59.842;17.584;2022-11-20T08:20:38;0.60;99.90
43143;DHT22;28750;59.842;17.584;2022-11-20T08:23:07;0.60;99.90
43143;DHT22;28750;59.842;17.584;2022-11-20T08:25:35;0.60;99.90
43143;DHT22;28750;59.842;17.584;2022-11-20T08:28:05;0.50;99.90
43143;DHT22;28750;59.842;17.584;2022-11-20T08:30:32;0.50;99.90
43143;DHT22;28750;59.842;17.584;2022-11-20T08:33:07;0.60;99.90
43143;DHT22;28750;59.842;17.584;2022-11-20T08:35:35;0.60;99.90
43143;DHT22;28750;59.842;17.584;2022-11-20T08:38:04;0.60;99.90
43143;DHT22;28750;59.842;17.584;2022-11-20T08:40:31;0.70;99.90
43143;DHT22;28750;59.842;17.584;2022-11-20T08:42:58;0.60;99.90
43143;DHT22;28750;59.842;17.584;2022-11-20T08:45:26;0.60;99.90
43143;DHT22;28750;59.842;17.584;2022-11-20T08:47:53;0.60;99.90
43143;DHT22;28750;59.842;17.584;2022-11-20T08:50:20;0.60;99.90
43143;DHT22;28750;59.842;17.584;2022-11-20T08:52:47;0.70;99.90
43143;DHT22;28750;59.842;17.584;2022-11-20T08:55:14;0.70;99.90
43143;DHT22;28750;59.842;17.584;2022-11-20T08:57:40;0.60;99.90
43143;DHT22;28750;59.842;17.584;2022-11-20T09:00:09;0.70;99.90
43143;DHT22;28750;59.842;17.584;2022-11-20T09:02:36;0.70;99.90
43143;DHT22;28750;59.842;17.584;2022-11-20T09:05:03;0.60;99.90
43143;DHT22;28750;59.842;17.584;2022-11-20T09:07:31;0.70;99.90
43143;DHT22;28750;59.842;17.584;2022-11-20T09:09:57;0.70;99.90
43143;DHT22;28750;59.842;17.584;2022-11-20T09:12:25;0.70;99.90
43143;DHT22;28750;59.842;17.584;2022-11-20T09:14:52;0.70;99.90
43143;DHT22;28750;59.842;17.584;2022-11-20T09:17:18;0.70;99.90
43143;DHT22;28750;59.842;17.584;2022-11-20T09:19:46;0.70;99.90
43143;DHT22;28750;59.842;17.584;2022-11-20T09:22:13;0.70;99.90
43143;DHT22;28750;59.842;17.584;2022-11-20T09:24:40;0.70;99.90
43143;DHT22;28750;59.842;17.584;2022-11-20T09:27:08;0.80;99.90
43143;DHT22;28750;59.842;17.584;2022-11-20T09:29:35;0.80;99.90
43143;DHT22;28750;59.842;17.584;2022-11-20T09:32:02;0.80;99.90
43143;DHT22;28750;59.842;17.584;2022-11-20T09:34:29;0.80;99.90
43143;DHT22;28750;59.842;17.584;2022-11-20T09:36:56;0.70;99.90
43143;DHT22;28750;59.842;17.584;2022-11-20T09:39:23;0.80;99.90
43143;DHT22;28750;59.842;17.584;2022-11-20T09:47:26;0.80;99.90
43143;DHT22;28750;59.842;17.584;2022-11-20T09:50:25;0.80;99.90
43143;DHT22;28750;59.842;17.584;2022-11-20T09:53:45;0.70;99.90
43143;DHT22;28750;59.842;17.584;2022-11-20T09:56:14;0.80;99.90
43143;DHT22;28750;59.842;17.584;2022-11-20T09:58:44;0.80;99.90
43143;DHT22;28750;59.842;17.584;2022-11-20T10:03:54;0.80;99.90
43143;DHT22;28750;59.842;17.584;2022-11-20T10:06:34;0.80;99.90
43143;DHT22;28750;59.842;17.584;2022-11-20T10:17:19;0.80;99.90
43143;DHT22;28750;59.842;17.584;2022-11-20T10:20:15;0.90;99.90
43143;DHT22;28750;59.842;17.584;2022-11-20T10:22:50;0.80;99.90
43143;DHT22;28750;59.842;17.584;2022-11-20T10:25:24;0.80;99.90
43143;DHT22;28750;59.842;17.584;2022-11-20T10:28:22;0.80;99.90
43143;DHT22;28750;59.842;17.584;2022-11-20T10:31:02;0.80;99.90
43143;DHT22;28750;59.842;17.584;2022-11-20T10:33:39;0.80;99.90
43143;DHT22;28750;59.842;17.584;2022-11-20T10:36:17;0.80;99.90
43143;DHT22;28750;59.842;17.584;2022-11-20T10:39:07;0.80;99.90
43143;DHT22;28750;59.842;17.584;2022-11-20T10:41:45;0.70;99.90
43143;DHT22;28750;59.842;17.584;2022-11-20T10:44:17;0.80;99.90
43143;DHT22;28750;59.842;17.584;2022-11-20T10:47:16;0.80;99.90
43143;DHT22;28750;59.842;17.584;2022-11-20T10:49:47;0.80;99.90
43143;DHT22;28750;59.842;17.584;2022-11-20T10:58:26;0.80;99.90
43143;DHT22;28750;59.842;17.584;2022-11-20T11:01:13;0.70;99.90
43143;DHT22;28750;59.842;17.584;2022-11-20T11:03:42;0.70;99.90
43143;DHT22;28750;59.842;17.584;2022-11-20T11:06:46;0.70;99.90
43143;DHT22;28750;59.842;17.584;2022-11-20T11:09:25;0.80;99.90
43143;DHT22;28750;59.842;17.584;2022-11-20T11:11:56;0.70;99.90
43143;DHT22;28750;59.842;17.584;2022-11-20T11:14:23;0.70;99.90
43143;DHT22;28750;59.842;17.584;2022-11-20T11:16:55;0.70;99.90
43143;DHT22;28750;59.842;17.584;2022-11-20T11:19:23;0.60;99.90
43143;DHT22;28750;59.842;17.584;2022-11-20T11:21:56;0.60;99.90
43143;DHT22;28750;59.842;17.584;2022-11-20T11:24:28;0.70;99.90
43143;DHT22;28750;59.842;17.584;2022-11-20T11:27:01;0.60;99.90
43143;DHT22;28750;59.842;17.584;2022-11-20T11:29:31;0.70;99.90
43143;DHT22;28750;59.842;17.584;2022-11-20T11:32:11;0.70;99.90
43143;DHT22;28750;59.842;17.584;2022-11-20T11:34:39;0.70;99.90
43143;DHT22;28750;59.842;17.584;2022-11-20T11:37:18;0.70;99.90
43143;DHT22;28750;59.842;17.584;2022-11-20T11:39:47;0.60;99.90
43143;DHT22;28750;59.842;17.584;2022-11-20T11:42:18;0.70;99.90
43143;DHT22;28750;59.842;17.584;2022-11-20T11:44:47;0.70;99.90
43143;DHT22;28750;59.842;17.584;2022-11-20T11:55:44;0.60;99.90
43143;DHT22;28750;59.842;17.584;2022-11-20T11:58:42;0.70;99.90
43143;DHT22;28750;59.842;17.584;2022-11-20T12:07:19;0.70;99.90
43143;DHT22;28750;59.842;17.584;2022-11-20T12:09:51;0.70;99.90
43143;DHT22;28750;59.842;17.584;2022-11-20T12:12:32;0.60;99.90
43143;DHT22;28750;59.842;17.584;2022-11-20T12:15:02;0.60;99.90
43143;DHT22;28750;59.842;17.584;2022-11-20T12:17:31;0.60;99.90
43143;DHT22;28750;59.842;17.584;2022-11-20T12:19:57;0.60;99.90
43143;DHT22;28750;59.842;17.584;2022-11-20T12:22:34;0.70;99.90
43143;DHT22;28750;59.842;17.584;2022-11-20T12:25:18;0.70;99.90
43143;DHT22;28750;59.842;17.584;2022-11-20T12:30:58;0.70;99.90
43143;DHT22;28750;59.842;17.584;2022-11-20T12:33:48;0.70;99.90
43143;DHT22;28750;59.842;17.584;2022-11-20T12:36:34;0.70;99.90
43143;DHT22;28750;59.842;17.584;2022-11-20T12:41:53;0.70;99.90
43143;DHT22;28750;59.842;17.584;2022-11-20T12:45:02;0.70;99.90
43143;DHT22;28750;59.842;17.584;2022-11-20T12:47:49;0.70;99.90
43143;DHT22;28750;59.842;17.584;2022-11-20T13:07:08;0.70;99.90
43143;DHT22;28750;59.842;17.584;2022-11-20T13:09:46;0.70;99.90
43143;DHT22;28750;59.842;17.584;2022-11-20T13:12:22;0.70;99.90
43143;DHT22;28750;59.842;17.584;2022-11-20T13:17:42;0.70;99.90
43143;DHT22;28750;59.842;17.584;2022-11-20T13:20:17;0.70;99.90
43143;DHT22;28750;59.842;17.584;2022-11-20T13:25:33;0.60;99.90
43143;DHT22;28750;59.842;17.584;2022-11-20T13:28:05;0.70;99.90
43143;DHT22;28750;59.842;17.584;2022-11-20T13:30:52;0.70;99.90
43143;DHT22;28750;59.842;17.584;2022-11-20T13:33:32;0.60;99.90
43143;DHT22;28750;59.842;17.584;2022-11-20T13:36:21;0.60;99.90
43143;DHT22;28750;59.842;17.584;2022-11-20T13:38:51;0.60;99.90
43143;DHT22;28750;59.842;17.584;2022-11-20T13:41:25;0.60;99.90
43143;DHT22;28750;59.842;17.584;2022-11-20T13:44:20;0.70;99.90
43143;DHT22;28750;59.842;17.584;2022-11-20T13:46:49;0.60;99.90
43143;DHT22;28750;59.842;17.584;2022-11-20T13:52:22;0.60;99.90
43143;DHT22;28750;59.842;17.584;2022-11-20T13:55:04;0.60;99.90
43143;DHT22;28750;59.842;17.584;2022-11-20T13:58:23;0.60;99.90
43143;DHT22;28750;59.842;17.584;2022-11-20T14:00:27;0.60;99.90
43143;DHT22;28750;59.842;17.584;2022-11-20T14:05:39;0.60;99.90
43143;DHT22;28750;59.842;17.584;2022-11-20T14:08:17;0.60;99.90
43143;DHT22;28750;59.842;17.584;2022-11-20T14:10:48;0.60;99.90
43143;DHT22;28750;59.842;17.584;2022-11-20T14:13:18;0.60;99.90
43143;DHT22;28750;59.842;17.584;2022-11-20T14:15:46;0.60;99.90
43143;DHT22;28750;59.842;17.584;2022-11-20T14:18:19;0.60;99.90
43143;DHT22;28750;59.842;17.584;2022-11-20T14:20:47;0.60;99.90
43143;DHT22;28750;59.842;17.584;2022-11-20T14:23:27;0.60;99.90
43143;DHT22;28750;59.842;17.584;2022-11-20T14:25:55;0.60;99.90
43143;DHT22;28750;59.842;17.584;2022-11-20T14:28:30;0.60;99.90
43143;DHT22;28750;59.842;17.584;2022-11-20T14:30:57;0.60;99.90
43143;DHT22;28750;59.842;17.584;2022-11-20T14:33:26;0.60;99.90
43143;DHT22;28750;59.842;17.584;2022-11-20T14:35:55;0.60;99.90
43143;DHT22;28750;59.842;17.584;2022-11-20T14:38:28;0.60;99.90
43143;DHT22;28750;59.842;17.584;2022-11-20T14:41:06;0.60;99.90
43143;DHT22;28750;59.842;17.584;2022-11-20T14:43:34;0.60;99.90
43143;DHT22;28750;59.842;17.584;2022-11-20T14:46:05;0.60;99.90
43143;DHT22;28750;59.842;17.584;2022-11-20T14:48:55;0.60;99.90
43143;DHT22;28750;59.842;17.584;2022-11-20T14:51:42;0.50;99.90
43143;DHT22;28750;59.842;17.584;2022-11-20T14:54:17;0.60;99.90
43143;DHT22;28750;59.842;17.584;2022-11-20T14:56:59;0.50;99.90
43143;DHT22;28750;59.842;17.584;2022-11-20T14:59:29;0.60;99.90
43143;DHT22;28750;59.842;17.584;2022-11-20T15:01:59;0.60;99.90
43143;DHT22;28750;59.842;17.584;2022-11-20T15:04:27;0.60;99.90
43143;DHT22;28750;59.842;17.584;2022-11-20T15:06:56;0.60;99.90
43143;DHT22;28750;59.842;17.584;2022-11-20T15:09:23;0.60;99.90
43143;DHT22;28750;59.842;17.584;2022-11-20T15:12:15;0.60;99.90
43143;DHT22;28750;59.842;17.584;2022-11-20T15:14:44;0.70;99.90
43143;DHT22;28750;59.842;17.584;2022-11-20T15:17:11;0.60;99.90
43143;DHT22;28750;59.842;17.584;2022-11-20T15:19:38;0.60;99.90
43143;DHT22;28750;59.842;17.584;2022-11-20T15:22:11;0.60;99.90
43143;DHT22;28750;59.842;17.584;2022-11-20T15:24:41;0.60;99.90
43143;DHT22;28750;59.842;17.584;2022-11-20T15:27:10;0.60;99.90
43143;DHT22;28750;59.842;17.584;2022-11-20T15:29:37;0.70;99.90
43143;DHT22;28750;59.842;17.584;2022-11-20T15:32:04;0.60;99.90
43143;DHT22;28750;59.842;17.584;2022-11-20T15:34:31;0.50;99.90
43143;DHT22;28750;59.842;17.584;2022-11-20T15:36:58;0.50;99.90
43143;DHT22;28750;59.842;17.584;2022-11-20T15:39:25;0.50;99.90
43143;DHT22;28750;59.842;17.584;2022-11-20T15:41:52;0.50;99.90
43143;DHT22;28750;59.842;17.584;2022-11-20T15:44:19;0.50;99.90
43143;DHT22;28750;59.842;17.584;2022-11-20T15:46:46;0.50;99.90
43143;DHT22;28750;59.842;17.584;2022-11-20T15:49:15;0.50;99.90
43143;DHT22;28750;59.842;17.584;2022-11-20T15:51:46;0.50;99.90
43143;DHT22;28750;59.842;17.584;2022-11-20T15:54:20;0.50;99.90
43143;DHT22;28750;59.842;17.584;2022-11-20T15:56:48;0.50;99.90
43143;DHT22;28750;59.842;17.584;2022-11-20T15:59:18;0.50;99.90
43143;DHT22;28750;59.842;17.584;2022-11-20T16:01:45;0.50;99.90
43143;DHT22;28750;59.842;17.584;2022-11-20T16:04:15;0.50;99.90
43143;DHT22;28750;59.842;17.584;2022-11-20T16:06:42;0.50;99.90
43143;DHT22;28750;59.842;17.584;2022-11-20T16:09:09;0.50;99.90
43143;DHT22;28750;59.842;17.584;2022-11-20T16:11:37;0.50;99.90
43143;DHT22;28750;59.842;17.584;2022-11-20T16:14:04;0.50;99.90
43143;DHT22;28750;59.842;17.584;2022-11-20T16:16:49;0.50;99.90
43143;DHT22;28750;59.842;17.584;2022-11-20T16:19:17;0.50;99.90
43143;DHT22;28750;59.842;17.584;2022-11-20T16:21:44;0.50;99.90
43143;DHT22;28750;59.842;17.584;2022-11-20T16:24:12;0.50;99.90
43143;DHT22;28750;59.842;17.584;2022-11-20T16:26:40;0.40;99.90
43143;DHT22;28750;59.842;17.584;2022-11-20T16:29:07;0.50;99.90
43143;DHT22;28750;59.842;17.584;2022-11-20T16:31:35;0.40;99.90
43143;DHT22;28750;59.842;17.584;2022-11-20T16:34:06;0.50;99.90
43143;DHT22;28750;59.842;17.584;2022-11-20T16:36:33;0.40;99.90
43143;DHT22;28750;59.842;17.584;2022-11-20T16:39:02;0.30;99.90
43143;DHT22;28750;59.842;17.584;2022-11-20T16:41:32;0.30;99.90
43143;DHT22;28750;59.842;17.584;2022-11-20T16:44:01;0.30;99.90
43143;DHT22;28750;59.842;17.584;2022-11-20T16:46:30;0.30;99.90
43143;DHT22;28750;59.842;17.584;2022-11-20T16:48:59;0.20;99.90
43143;DHT22;28750;59.842;17.584;2022-11-20T16:51:28;0.20;99.90
43143;DHT22;28750;59.842;17.584;2022-11-20T16:53:55;0.20;99.90
43143;DHT22;28750;59.842;17.584;2022-11-20T16:56:25;0.20;99.90
43143;DHT22;28750;59.842;17.584;2022-11-20T16:58:55;0.20;99.90
43143;DHT22;28750;59.842;17.584;2022-11-20T17:01:23;0.20;99.90
43143;DHT22;28750;59.842;17.584;2022-11-20T17:04:08;0.20;99.90
43143;DHT22;28750;59.842;17.584;2022-11-20T17:06:37;0.10;99.90